Terminal Aerodrome Forecast
Issued by NWS

Home | Current Version | Previous Version | Text Only | Print | Product List | Glossary On
Versions: 1 2 3 4 5 6 7 8 9 10 11 12 13 14 15 16 17 18 19 20 21 22 23 24 25 26 27 28 29 30
000
FTUS45 KTWC 280025 AAA
TAFOLS
TAF AMD
KOLS 280025Z 2800/2824 36007G15KT P6SM FEW070
     FM280200 05006KT P6SM SKC
     FM280500 09011KT P6SM SKC
     FM281200 09011G17KT P6SM SKC
     FM281700 12014G20KT P6SM SKC=

USA.gov is the U.S. government's official web portal to all federal, state and local government web resources and services.